createdAt,value
2019-04-10T00:04:29.618Z,8.60
2019-04-10T00:12:47.688Z,8.90
2019-04-10T00:21:27.594Z,7.72
2019-04-10T00:26:34.458Z,8.68
2019-04-10T00:35:52.002Z,7.72
2019-04-10T00:40:59.654Z,7.03
2019-04-10T00:46:06.593Z,8.63
2019-04-10T00:51:13.463Z,8.33
2019-04-10T00:56:20.777Z,10.68
2019-04-10T01:01:27.710Z,8.68
2019-04-10T01:06:34.509Z,9.05
2019-04-10T01:11:41.478Z,9.20
2019-04-10T01:16:49.365Z,8.20
2019-04-10T01:21:56.985Z,8.45
2019-04-10T01:27:05.263Z,9.05
2019-04-10T01:32:12.489Z,8.58
2019-04-10T01:37:19.465Z,8.70
2019-04-10T01:42:26.455Z,9.43
2019-04-10T01:47:33.497Z,8.75
2019-04-10T01:52:41.455Z,9.03
2019-04-10T01:57:49.080Z,8.30
2019-04-10T02:02:56.113Z,9.30
2019-04-10T02:08:09.078Z,9.25
2019-04-10T02:13:12.270Z,9.00
2019-04-10T02:18:19.503Z,8.07
2019-04-10T02:23:26.607Z,8.60
2019-04-10T02:28:33.506Z,9.23
2019-04-10T02:33:41.237Z,8.50
2019-04-10T02:38:59.275Z,8.33
2019-04-10T02:43:58.036Z,7.92
2019-04-10T02:49:06.194Z,9.18
2019-04-10T02:54:14.086Z,9.55
2019-04-10T02:59:23.362Z,9.45
2019-04-10T03:04:31.118Z,10.40
2019-04-10T03:09:53.306Z,9.90
2019-04-10T03:14:47.740Z,10.13
2019-04-10T03:19:56.082Z,9.75
2019-04-10T03:25:04.414Z,14.70
2019-04-10T03:30:14.911Z,16.82
2019-04-10T03:35:30.352Z,12.15
2019-04-10T03:40:37.626Z,10.55
2019-04-10T03:45:44.546Z,10.20
2019-04-10T03:50:52.176Z,9.83
2019-04-10T03:55:59.474Z,9.98
2019-04-10T04:01:06.912Z,11.00
2019-04-10T04:06:14.096Z,11.33
2019-04-10T04:11:21.804Z,11.70
2019-04-10T04:16:28.729Z,11.53
2019-04-10T04:21:36.257Z,12.00
2019-04-10T04:26:45.066Z,12.53
2019-04-10T04:31:52.707Z,11.48
2019-04-10T04:37:00.625Z,12.45
2019-04-10T04:42:07.583Z,11.93
2019-04-10T04:47:15.654Z,11.93
2019-04-10T04:52:23.782Z,12.53
2019-04-10T04:57:33.727Z,11.85
2019-04-10T05:02:42.616Z,11.65
2019-04-10T05:07:59.349Z,11.93
2019-04-10T05:18:06.238Z,11.83
2019-04-10T05:28:20.400Z,12.00
2019-04-10T05:33:27.435Z,10.65
2019-04-10T05:38:35.536Z,10.60
2019-04-10T05:43:42.644Z,10.72
2019-04-10T05:48:50.489Z,10.35
2019-04-10T05:53:58.021Z,9.73
2019-04-10T05:59:08.010Z,10.80
2019-04-10T06:04:14.430Z,9.90
2019-04-10T06:09:22.659Z,9.53
2019-04-10T06:14:30.402Z,10.20
2019-04-10T06:19:38.501Z,9.18
2019-04-10T06:24:46.906Z,8.83
2019-04-10T06:29:53.623Z,8.63
2019-04-10T06:35:01.780Z,8.70
2019-04-10T06:40:18.149Z,8.05
2019-04-10T06:45:19.738Z,8.80
2019-04-10T06:50:28.639Z,8.40
2019-04-10T06:55:38.446Z,8.33
2019-04-10T07:00:51.047Z,8.95
2019-04-10T07:06:06.071Z,7.85
2019-04-10T07:11:08.689Z,8.10
2019-04-10T07:16:12.765Z,7.28
2019-04-10T07:21:20.125Z,8.30
2019-04-10T07:26:35.441Z,8.03
2019-04-10T07:31:37.921Z,7.70
2019-04-10T07:36:46.931Z,7.15
2019-04-10T07:41:55.749Z,7.17
2019-04-10T07:47:02.764Z,6.75
2019-04-10T07:52:10.606Z,6.75
2019-04-10T07:57:17.559Z,6.83
2019-04-10T08:02:25.489Z,6.42
2019-04-10T08:07:35.734Z,6.17
2019-04-10T08:12:47.349Z,6.80
2019-04-10T08:22:57.902Z,7.03
2019-04-10T08:28:04.669Z,6.45
2019-04-10T08:33:11.994Z,6.58
2019-04-10T08:38:19.643Z,5.77
2019-04-10T08:43:26.685Z,6.47
2019-04-10T08:48:34.549Z,6.28
2019-04-10T08:53:42.480Z,6.92
2019-04-10T08:58:51.802Z,6.37
2019-04-10T09:03:59.422Z,7.42
2019-04-10T09:09:09.733Z,7.50
2019-04-10T09:14:17.079Z,7.47
2019-04-10T09:19:25.606Z,7.50
2019-04-10T09:24:32.500Z,7.75
2019-04-10T09:29:40.361Z,7.60
2019-04-10T09:34:49.895Z,6.72
2019-04-10T09:39:58.021Z,7.75
2019-04-10T09:45:05.596Z,8.15
2019-04-10T09:50:13.091Z,7.47
2019-04-10T09:55:20.542Z,7.85
2019-04-10T10:00:27.882Z,7.78
2019-04-10T10:05:35.485Z,7.80
2019-04-10T10:10:42.589Z,8.00
2019-04-10T10:15:49.534Z,8.08
2019-04-10T10:20:56.547Z,8.40
2019-04-10T10:26:03.851Z,6.85
2019-04-10T10:31:11.563Z,10.10
2019-04-10T10:36:18.450Z,8.88
2019-04-10T10:41:26.416Z,11.28
2019-04-10T10:46:33.548Z,14.00
2019-04-10T10:51:40.597Z,8.20
2019-04-10T10:56:48.584Z,7.70
2019-04-10T11:01:55.983Z,7.78
2019-04-10T11:07:04.613Z,6.60
2019-04-10T11:12:12.193Z,6.75
2019-04-10T11:17:19.936Z,7.00
2019-04-10T11:22:27.429Z,15.28
2019-04-10T11:27:35.572Z,8.40
2019-04-10T11:32:42.593Z,7.30
2019-04-10T11:37:53.232Z,6.97
2019-04-10T11:43:04.709Z,8.70
2019-04-10T11:48:10.331Z,13.95
2019-04-10T11:53:19.091Z,8.40
2019-04-10T11:58:28.901Z,7.10
2019-04-10T12:03:37.118Z,6.50
2019-04-10T12:09:08.465Z,7.50
2019-04-10T12:13:54.378Z,7.12
2019-04-10T12:19:02.676Z,7.20
2019-04-10T12:24:09.609Z,8.33
2019-04-10T12:29:16.575Z,7.92
2019-04-10T12:34:24.580Z,7.12
2019-04-10T12:39:32.204Z,7.85
2019-04-10T12:44:42.726Z,7.33
2019-04-10T12:49:50.585Z,7.50
2019-04-10T12:54:57.479Z,7.75
2019-04-10T13:00:05.264Z,7.42
2019-04-10T13:05:13.309Z,7.12
2019-04-10T13:10:20.478Z,7.45
2019-04-10T13:15:27.629Z,6.67
2019-04-10T13:20:34.688Z,15.50
2019-04-10T13:25:42.729Z,8.10
2019-04-10T13:30:53.787Z,7.05
2019-04-10T13:35:59.562Z,6.25
2019-04-10T13:41:06.589Z,6.10
2019-04-10T13:46:14.260Z,6.25
2019-04-10T13:51:21.460Z,6.37
2019-04-10T13:56:28.805Z,7.00
2019-04-10T14:01:38.437Z,7.67
2019-04-10T14:06:49.269Z,7.20
2019-04-10T14:11:57.582Z,10.32
2019-04-10T14:17:06.855Z,7.92
2019-04-10T14:22:14.246Z,8.60
2019-04-10T14:32:38.167Z,6.03
2019-04-10T14:37:45.475Z,6.55
2019-04-10T14:42:53.560Z,5.72
2019-04-10T14:48:03.680Z,6.50
2019-04-10T14:53:11.742Z,6.08
2019-04-10T14:58:27.528Z,5.72
2019-04-10T15:03:30.459Z,6.08
2019-04-10T15:08:48.801Z,5.65
2019-04-10T15:13:57.218Z,6.10
2019-04-10T15:19:04.574Z,5.62
2019-04-10T15:24:12.602Z,6.05
2019-04-10T15:29:21.322Z,4.80
2019-04-10T15:34:28.593Z,5.22
2019-04-10T15:39:39.958Z,5.87
2019-04-10T15:44:46.491Z,5.25
2019-04-10T15:49:53.632Z,5.00
2019-04-10T15:55:01.558Z,4.78
2019-04-10T16:00:12.676Z,5.62
2019-04-10T16:05:20.066Z,5.20
2019-04-10T16:10:46.285Z,5.00
2019-04-10T16:15:54.718Z,5.55
2019-04-10T16:21:02.084Z,5.97
2019-04-10T16:31:16.471Z,4.97
2019-04-10T16:36:23.566Z,5.25
2019-04-10T16:41:31.189Z,5.22
2019-04-10T16:46:38.595Z,6.35
2019-04-10T16:51:45.567Z,5.40
2019-04-10T16:56:52.591Z,6.35
2019-04-10T17:02:00.434Z,6.05
2019-04-10T17:07:08.661Z,5.70
2019-04-10T17:12:15.671Z,5.33
2019-04-10T17:17:23.463Z,5.15
2019-04-10T17:22:37.119Z,5.35
2019-04-10T17:32:46.660Z,5.70
2019-04-10T17:37:54.254Z,5.30
2019-04-10T17:48:09.516Z,7.77
2019-04-10T17:53:17.288Z,7.10
2019-04-10T17:58:25.921Z,5.70
2019-04-10T18:03:42.973Z,6.28
2019-04-10T18:08:41.596Z,5.55
2019-04-10T18:13:49.242Z,6.25
2019-04-10T18:18:56.792Z,6.85
2019-04-10T18:24:04.147Z,5.72
2019-04-10T18:29:11.670Z,6.22
2019-04-10T18:34:19.381Z,6.30
2019-04-10T18:42:28.797Z,5.85
2019-04-10T18:47:39.145Z,5.65
2019-04-10T18:52:45.690Z,6.50
2019-04-10T18:57:52.601Z,5.95
2019-04-10T19:03:11.034Z,5.80
2019-04-10T19:08:19.684Z,6.10
2019-04-10T19:13:26.693Z,6.30
2019-04-10T19:18:33.596Z,6.10
2019-04-10T19:23:41.747Z,6.28
2019-04-10T19:28:48.846Z,5.85
2019-04-10T19:33:56.774Z,6.00
2019-04-10T19:39:05.536Z,5.78
2019-04-10T19:44:12.952Z,6.20
2019-04-10T19:49:20.064Z,6.50
2019-04-10T19:54:28.205Z,5.72
2019-04-10T19:59:37.249Z,5.42
2019-04-10T20:04:45.050Z,6.15
2019-04-10T20:09:52.818Z,6.20
2019-04-10T20:15:00.501Z,6.12
2019-04-10T20:20:08.443Z,6.25
2019-04-10T20:25:16.471Z,5.80
2019-04-10T20:30:26.268Z,5.67
2019-04-10T20:36:11.033Z,5.67
2019-04-10T20:41:18.399Z,5.40
2019-04-10T20:46:26.321Z,5.72
2019-04-10T20:56:41.062Z,5.72
2019-04-10T21:01:49.095Z,5.45
2019-04-10T21:06:56.639Z,5.53
2019-04-10T21:12:08.580Z,5.75
2019-04-10T21:17:12.491Z,5.83
2019-04-10T21:22:20.355Z,6.05
2019-04-10T21:27:28.005Z,5.67
2019-04-10T21:33:02.273Z,5.97
2019-04-10T21:38:09.453Z,5.80
2019-04-10T21:43:18.538Z,5.53
2019-04-10T21:48:26.602Z,5.40
2019-04-10T21:53:34.453Z,5.70
2019-04-10T21:58:42.576Z,6.12
2019-04-10T22:03:50.520Z,5.45
2019-04-10T22:09:15.345Z,6.40
2019-04-10T22:14:24.268Z,5.70
2019-04-10T22:19:31.543Z,6.80
2019-04-10T22:24:38.633Z,7.30
2019-04-10T22:29:45.532Z,7.20
2019-04-10T22:34:52.836Z,7.03
2019-04-10T22:40:01.103Z,7.10
2019-04-10T22:45:15.559Z,7.90
2019-04-10T22:50:22.583Z,6.47
2019-04-10T22:55:29.583Z,7.60
2019-04-10T23:00:37.602Z,7.72
2019-04-10T23:05:44.797Z,6.55
2019-04-10T23:10:51.640Z,6.87
2019-04-10T23:15:59.673Z,6.25
2019-04-10T23:21:08.141Z,6.33
2019-04-10T23:26:15.931Z,5.70
2019-04-10T23:31:23.721Z,5.30
2019-04-10T23:36:31.729Z,5.40
2019-04-10T23:41:39.785Z,5.17
2019-04-10T23:46:47.452Z,5.25
2019-04-10T23:51:55.662Z,5.55
2019-04-10T23:57:03.134Z,5.60
